Time;durP1;ratioP1;P1;durP2;ratioP2;P2;SDS_P1;SDS_P2;PMS_P1;PMS_P2;Temp;Humidity;BMP_temperature;BMP_pressure;BME280_temperature;BME280_humidity;BME280_pressure;Samples;Min_cycle;Max_cycle;Signal;HPM_P1;HPM_P2
2021/11/12 00:14:46;;;;;;;153.80;39.13;;;1.70;63.20;;;;;;5118012;27;20138;-70
2021/11/12 00:17:18;;;;;;;158.65;39.10;;;1.70;63.40;;;;;;5121576;27;20558;-69
2021/11/12 00:19:47;;;;;;;108.05;36.88;;;1.80;63.40;;;;;;5117460;27;20046;-69
2021/11/12 00:22:20;;;;;;;173.63;40.00;;;1.80;63.40;;;;;;5120634;27;20054;-69
2021/11/12 00:24:53;;;;;;;237.48;42.13;;;2.00;63.60;;;;;;5114957;27;20047;-69
2021/11/12 00:27:24;;;;;;;138.80;36.70;;;1.90;63.50;;;;;;5116057;27;20035;-69
2021/11/12 00:30:00;;;;;;;359.60;52.72;;;1.90;63.50;;;;;;5124655;27;20089;-69
2021/11/12 00:32:38;;;;;;;261.55;45.00;;;1.80;63.40;;;;;;5118078;27;20111;-69
2021/11/12 00:35:17;;;;;;;254.55;43.80;;;1.90;63.30;;;;;;5111334;27;20070;-69
2021/11/12 00:37:55;;;;;;;234.70;41.50;;;1.80;63.40;;;;;;5121609;27;20040;-68
2021/11/12 00:40:27;;;;;;;123.22;33.47;;;1.80;63.50;;;;;;5119504;27;20494;-69
2021/11/12 00:45:51;;;;;;;277.17;47.03;;;1.80;63.50;;;;;;5118725;27;20048;-68
2021/11/12 00:48:22;;;;;;;198.98;38.15;;;1.70;63.40;;;;;;5103946;27;20042;-68
2021/11/12 00:51:09;;;;;;;125.70;36.72;;;1.70;63.40;;;;;;5099737;27;20054;-69
2021/11/12 00:53:50;;;;;;;154.00;35.25;;;1.60;63.20;;;;;;5120984;27;20055;-69
2021/11/12 00:56:22;;;;;;;320.70;49.65;;;1.70;63.10;;;;;;5115272;27;20051;-69
2021/11/12 00:58:54;;;;;;;118.80;34.55;;;1.80;63.40;;;;;;5113576;28;20042;-69
2021/11/12 01:01:23;;;;;;;147.13;36.25;;;1.90;63.60;;;;;;5121133;27;20114;-68
2021/11/12 01:03:53;;;;;;;103.38;36.03;;;1.90;63.50;;;;;;5116704;27;20062;-68
2021/11/12 01:06:23;;;;;;;96.85;34.72;;;2.10;63.70;;;;;;5091903;28;20446;-68
2021/11/12 01:08:51;;;;;;;95.63;36.90;;;2.10;63.80;;;;;;5124834;27;20135;-69
2021/11/12 01:11:21;;;;;;;117.72;35.15;;;1.90;63.60;;;;;;5114989;28;20138;-69
2021/11/12 01:13:53;;;;;;;111.85;35.60;;;1.90;63.60;;;;;;5119325;27;20046;-69
2021/11/12 01:16:22;;;;;;;135.48;36.05;;;1.80;63.50;;;;;;5117519;27;20035;-69
2021/11/12 01:18:50;;;;;;;107.32;36.80;;;1.70;63.40;;;;;;5117411;27;20051;-69
2021/11/12 01:21:19;;;;;;;131.45;33.95;;;1.80;63.50;;;;;;5116597;27;20143;-69
2021/11/12 01:23:51;;;;;;;96.65;34.53;;;1.60;63.30;;;;;;5102911;28;20122;-69
2021/11/12 01:26:25;;;;;;;95.72;31.30;;;1.70;63.40;;;;;;5111966;28;20510;-69
2021/11/12 01:28:58;;;;;;;91.15;30.13;;;1.70;63.40;;;;;;5119469;28;20046;-69
2021/11/12 01:31:30;;;;;;;71.78;30.50;;;1.70;63.40;;;;;;5117696;28;20066;-69
2021/11/12 01:34:07;;;;;;;96.82;31.92;;;1.60;63.20;;;;;;5115002;27;20500;-69
2021/11/12 01:36:37;;;;;;;140.23;31.35;;;1.60;63.20;;;;;;5102175;28;20511;-69
2021/11/12 01:39:14;;;;;;;96.20;29.90;;;1.70;63.40;;;;;;5121426;27;20035;-69
2021/11/12 01:41:47;;;;;;;86.97;30.85;;;1.70;63.40;;;;;;5115136;28;20056;-69
2021/11/12 01:44:30;;;;;;;117.43;34.53;;;1.60;63.20;;;;;;5119906;27;20086;-68
2021/11/12 01:47:13;;;;;;;101.28;32.53;;;1.50;63.20;;;;;;5120922;27;20148;-68
2021/11/12 01:49:43;;;;;;;94.57;31.52;;;1.60;63.20;;;;;;5119382;27;20043;-68
2021/11/12 01:52:16;;;;;;;90.68;29.55;;;1.60;63.20;;;;;;5117160;27;20046;-68
2021/11/12 01:54:59;;;;;;;153.60;33.95;;;1.60;63.20;;;;;;5119295;27;20051;-69
2021/11/12 01:57:50;;;;;;;206.95;36.55;;;1.50;63.10;;;;;;5124632;27;20044;-68
2021/11/12 02:00:25;;;;;;;113.60;32.28;;;1.40;62.90;;;;;;5119983;27;20055;-68
2021/11/12 02:02:56;;;;;;;91.32;31.30;;;1.60;62.90;;;;;;5126391;27;20453;-68
2021/11/12 02:05:28;;;;;;;95.65;32.17;;;1.60;63.00;;;;;;5117951;27;20353;-68
2021/11/12 02:07:56;;;;;;;107.35;33.85;;;1.60;63.10;;;;;;5117791;27;20050;-68
2021/11/12 02:10:26;;;;;;;173.52;39.13;;;1.70;63.10;;;;;;5126297;27;20069;-67
2021/11/12 02:13:06;;;;;;;112.38;33.35;;;1.60;62.90;;;;;;5124030;27;20042;-67
2021/11/12 02:15:38;;;;;;;101.70;32.78;;;1.70;63.00;;;;;;5114873;27;20046;-67
2021/11/12 02:18:15;;;;;;;80.78;31.88;;;1.50;63.10;;;;;;5124469;27;20391;-67
2021/11/12 02:20:55;;;;;;;164.15;34.55;;;1.40;62.90;;;;;;5117869;27;20048;-67
2021/11/12 02:23:29;;;;;;;91.75;32.13;;;1.40;62.80;;;;;;5117416;27;20054;-68
2021/11/12 02:26:02;;;;;;;177.88;35.17;;;1.50;62.90;;;;;;5123960;27;20044;-67
2021/11/12 02:28:30;;;;;;;149.15;32.85;;;1.50;62.90;;;;;;5117149;27;20047;-68
2021/11/12 02:31:03;;;;;;;88.25;31.30;;;1.60;62.90;;;;;;5121580;27;20051;-67
2021/11/12 02:33:36;;;;;;;94.63;30.77;;;1.40;62.90;;;;;;5123252;27;20047;-67
2021/11/12 02:36:12;;;;;;;112.75;31.15;;;1.30;62.60;;;;;;5117616;27;20444;-67
2021/11/12 02:38:44;;;;;;;74.40;29.90;;;1.40;62.70;;;;;;5123362;27;20123;-68
2021/11/12 02:41:13;;;;;;;105.28;33.13;;;1.50;63.40;;;;;;5124973;27;20059;-68
2021/11/12 02:43:49;;;;;;;143.13;33.08;;;1.40;62.60;;;;;;5118317;27;20084;-67
2021/11/12 02:46:21;;;;;;;96.45;32.08;;;1.50;62.70;;;;;;5116209;27;20082;-68
2021/11/12 02:48:50;;;;;;;89.07;30.15;;;1.60;62.60;;;;;;5105961;27;20093;-68
2021/11/12 02:51:27;;;;;;;154.13;35.63;;;1.60;62.60;;;;;;5116810;27;20100;-68
2021/11/12 02:53:57;;;;;;;121.57;33.85;;;1.70;62.80;;;;;;5122424;27;20053;-68
2021/11/12 02:56:29;;;;;;;69.35;30.05;;;1.60;62.80;;;;;;5120336;27;20609;-68
2021/11/12 02:59:06;;;;;;;190.75;37.15;;;1.60;63.00;;;;;;5117789;27;20078;-68
2021/11/12 03:01:41;;;;;;;83.15;31.23;;;1.60;63.10;;;;;;5117845;27;20505;-68
2021/11/12 03:04:17;;;;;;;126.30;33.97;;;1.70;63.80;;;;;;5120906;27;20070;-67
2021/11/12 03:06:48;;;;;;;91.22;31.45;;;1.70;63.20;;;;;;5117426;27;20511;-68
2021/11/12 03:09:24;;;;;;;108.35;35.00;;;1.70;63.30;;;;;;5128644;27;20482;-68
2021/11/12 03:11:53;;;;;;;91.28;30.05;;;1.70;63.10;;;;;;5121831;27;20483;-68
2021/11/12 03:14:21;;;;;;;227.35;38.50;;;1.70;63.40;;;;;;5117350;27;20091;-68
2021/11/12 03:16:54;;;;;;;188.45;36.22;;;1.60;63.20;;;;;;5123046;27;20411;-68
2021/11/12 03:19:25;;;;;;;244.77;41.67;;;1.60;62.90;;;;;;5117250;27;20043;-68
2021/11/12 03:22:00;;;;;;;237.10;38.80;;;1.70;63.00;;;;;;5125452;27;20312;-68
2021/11/12 03:24:34;;;;;;;239.70;41.10;;;1.60;63.10;;;;;;5122658;27;20039;-68
2021/11/12 03:27:13;;;;;;;174.77;37.88;;;1.60;63.00;;;;;;5116929;27;20142;-68
2021/11/12 03:30:12;;;;;;;111.25;38.33;;;1.50;62.90;;;;;;5119424;27;20051;-68
2021/11/12 03:47:10;;;;;;;91.38;32.90;;;1.80;63.40;;;;;;5123074;27;20695;-67
2021/11/12 03:50:11;;;;;;;130.80;33.90;;;1.80;63.40;;;;;;5099489;27;20384;-67
2021/11/12 04:04:12;;;;;;;158.48;34.45;;;1.60;63.20;;;;;;5080776;27;20122;-67
2021/11/12 04:06:52;;;;;;;252.48;41.30;;;1.50;63.10;;;;;;5115140;27;20154;-68
2021/11/12 04:20:35;;;;;;;179.93;35.40;;;1.50;63.00;;;;;;5118016;27;20123;-68
2021/11/12 05:11:09;;;;;;;83.40;29.98;;;1.50;63.20;;;;;;5092614;28;20518;-68
2021/11/12 05:44:24;;;;;;;169.35;32.03;;;1.40;62.90;;;;;;5086539;27;20147;-67
2021/11/12 05:47:09;;;;;;;138.05;29.63;;;1.40;63.00;;;;;;5088983;27;20050;-67
2021/11/12 05:49:47;;;;;;;172.30;33.70;;;1.30;62.90;;;;;;5125226;27;20181;-68
2021/11/12 05:55:04;;;;;;;143.82;30.58;;;1.30;62.70;;;;;;5119611;27;20093;-68
2021/11/12 05:55:10;;;;;;;89.78;29.63;;;1.30;62.80;;;;;;5117353;27;20127;-69
2021/11/12 05:57:39;;;;;;;134.02;31.33;;;1.20;62.80;;;;;;5123108;27;20410;-68
2021/11/12 06:00:12;;;;;;;121.05;29.73;;;1.40;62.90;;;;;;5116128;27;20134;-69
2021/11/12 06:02:40;;;;;;;120.32;30.98;;;1.40;63.00;;;;;;5119903;27;20168;-67
2021/11/12 06:05:09;;;;;;;112.32;31.13;;;1.40;62.90;;;;;;5114641;27;20039;-68
2021/11/12 06:07:41;;;;;;;87.45;29.45;;;1.50;63.00;;;;;;5118921;27;20051;-67
2021/11/12 06:10:12;;;;;;;91.30;29.02;;;1.50;63.00;;;;;;5122293;27;20542;-67
2021/11/12 06:12:40;;;;;;;101.95;28.77;;;1.50;63.10;;;;;;5116975;27;20166;-68
2021/11/12 06:15:08;;;;;;;98.60;30.10;;;1.60;63.20;;;;;;5116779;27;20430;-67
2021/11/12 06:17:42;;;;;;;101.43;29.73;;;1.50;63.20;;;;;;5120231;27;20050;-67
2021/11/12 06:20:11;;;;;;;106.53;29.58;;;1.50;63.10;;;;;;5119196;27;20129;-66
2021/11/12 06:22:44;;;;;;;79.07;32.05;;;1.50;63.20;;;;;;5121696;27;20067;-66
2021/11/12 06:25:13;;;;;;;83.70;30.45;;;1.50;63.20;;;;;;5113324;27;20104;-67
2021/11/12 06:27:49;;;;;;;;;;;1.50;63.20;;;;;;5116818;27;20067;-68
2021/11/12 06:30:17;;;;;;;;;;;1.60;63.20;;;;;;5122287;27;19971;-67
2021/11/12 06:32:46;;;;;;;;;;;1.60;63.20;;;;;;5107354;27;19920;-68
2021/11/12 06:35:17;;;;;;;;;;;1.50;63.20;;;;;;5093919;27;20427;-68
2021/11/12 06:37:49;;;;;;;;;;;1.40;63.10;;;;;;5102400;27;19920;-66
2021/11/12 06:40:20;;;;;;;;;;;1.40;63.70;;;;;;5103655;27;19924;-68
2021/11/12 06:43:06;;;;;;;;;;;1.50;63.20;;;;;;5099146;27;19928;-68
2021/11/12 06:51:09;;;;;;;;;;;1.60;63.20;;;;;;5098650;27;19923;-67
2021/11/12 06:53:39;;;;;;;;;;;1.70;63.40;;;;;;5096474;27;19923;-68
2021/11/12 06:56:06;;;;;;;;;;;1.70;63.40;;;;;;5096077;27;20454;-68
2021/11/12 06:58:37;;;;;;;;;;;1.60;63.20;;;;;;5098810;27;19920;-69
2021/11/12 07:01:05;;;;;;;;;;;1.50;63.10;;;;;;5099836;27;20305;-69
2021/11/12 07:03:37;;;;;;;;;;;1.50;63.10;;;;;;5098109;27;19930;-69
2021/11/12 07:06:07;;;;;;;;;;;1.30;62.90;;;;;;5095670;27;19928;-69
2021/11/12 07:08:45;;;;;;;;;;;1.40;63.00;;;;;;5098454;27;20385;-69
2021/11/12 07:11:17;;;;;;;;;;;1.50;63.00;;;;;;5110094;27;19927;-68
2021/11/12 07:13:47;;;;;;;;;;;1.70;63.30;;;;;;5116500;27;19950;-68
2021/11/12 07:16:15;;;;;;;;;;;1.80;63.40;;;;;;5116862;27;19926;-69
2021/11/12 07:18:45;;;;;;;;;;;1.80;63.40;;;;;;5115369;27;19946;-68
2021/11/12 07:21:15;;;;;;;;;;;1.70;63.40;;;;;;5120136;27;19966;-67
2021/11/12 07:24:02;;;;;;;;;;;1.60;63.30;;;;;;5119775;27;19935;-68
2021/11/12 07:26:36;;;;;;;;;;;1.50;63.20;;;;;;5114163;27;20001;-69
2021/11/12 07:29:08;;;;;;;;;;;1.60;63.20;;;;;;5118516;27;19928;-68
2021/11/12 07:31:41;;;;;;;;;;;1.50;63.20;;;;;;5120867;27;19959;-69
2021/11/12 07:34:12;;;;;;;;;;;1.60;63.20;;;;;;5110034;27;19927;-69
2021/11/12 07:36:45;;;;;;;;;;;1.60;63.30;;;;;;5119287;27;19927;-69
2021/11/12 07:39:19;;;;;;;;;;;1.70;63.40;;;;;;5098927;27;20050;-69
2021/11/12 07:44:39;;;;;;;;;;;1.60;63.30;;;;;;5116082;27;19934;-68
2021/11/12 07:47:13;;;;;;;;;;;1.60;63.20;;;;;;5116619;27;19969;-68
2021/11/12 07:49:41;;;;;;;;;;;1.60;63.20;;;;;;5113541;27;19964;-69
2021/11/12 07:52:14;;;;;;;;;;;1.80;63.40;;;;;;5118201;27;19954;-69
2021/11/12 07:54:44;;;;;;;;;;;1.90;63.50;;;;;;5113778;27;19971;-68
2021/11/12 07:57:12;;;;;;;;;;;1.80;63.40;;;;;;5118558;27;19919;-69
2021/11/12 07:59:43;;;;;;;;;;;1.80;63.40;;;;;;5125108;27;20287;-69
2021/11/12 08:02:17;;;;;;;;;;;1.70;63.00;;;;;;5120167;27;19919;-70
2021/11/12 08:04:47;;;;;;;;;;;1.90;63.20;;;;;;5095220;27;19927;-69
2021/11/12 08:07:15;;;;;;;;;;;1.70;62.80;;;;;;5125104;27;19919;-69
2021/11/12 08:09:51;;;;;;;;;;;1.70;62.60;;;;;;5120438;27;19945;-69
2021/11/12 08:12:21;;;;;;;;;;;1.80;62.80;;;;;;5123298;27;19927;-69
2021/11/12 08:15:08;;;;;;;;;;;1.90;62.90;;;;;;5116466;27;19926;-69
2021/11/12 08:17:42;;;;;;;;;;;2.00;62.90;;;;;;5113560;27;20359;-69
2021/11/12 08:20:24;;;;;;;;;;;2.00;62.30;;;;;;5120778;27;20026;-69
2021/11/12 08:22:59;;;;;;;;;;;1.70;61.80;;;;;;5120000;27;19927;-70
2021/11/12 08:25:32;;;;;;;;;;;1.90;62.20;;;;;;5115134;27;19919;-69
2021/11/12 08:31:02;;;;;;;;;;;1.80;60.90;;;;;;5114029;27;20266;-70
2021/11/12 08:33:37;;;;;;;;;;;1.70;61.10;;;;;;5115258;27;20018;-69
2021/11/12 08:36:24;;;;;;;;;;;1.70;61.20;;;;;;5111463;27;19933;-69
2021/11/12 08:39:07;;;;;;;;;;;1.50;60.70;;;;;;5122007;27;20008;-69
2021/11/12 08:41:41;;;;;;;;;;;1.50;60.90;;;;;;5102333;27;19919;-68
2021/11/12 08:44:17;;;;;;;;;;;1.80;61.40;;;;;;5118087;27;20030;-69
2021/11/12 08:46:50;;;;;;;;;;;2.00;61.40;;;;;;5121288;27;20410;-69
2021/11/12 08:49:26;;;;;;;;;;;2.10;60.50;;;;;;5115555;27;20009;-69
2021/11/12 08:51:59;;;;;;;;;;;2.10;60.30;;;;;;5117527;27;20290;-68
2021/11/12 08:54:30;;;;;;;;;;;2.20;59.80;;;;;;5118800;27;20013;-69
2021/11/12 08:57:05;;;;;;;;;;;2.30;59.80;;;;;;5120800;27;19930;-69
2021/11/12 08:59:33;;;;;;;;;;;2.20;59.20;;;;;;5116866;28;19926;-69
2021/11/12 09:02:02;;;;;;;;;;;2.10;58.80;;;;;;5120864;27;19927;-69
2021/11/12 09:04:31;;;;;;;;;;;1.90;57.90;;;;;;5090921;28;19920;-69
2021/11/12 09:06:59;;;;;;;;;;;2.00;59.40;;;;;;5105744;28;19935;-69
2021/11/12 09:09:31;;;;;;;;;;;2.00;59.50;;;;;;5116386;27;19927;-69
2021/11/12 09:12:01;;;;;;;;;;;2.10;59.50;;;;;;5114152;28;20352;-69
2021/11/12 09:14:36;;;;;;;;;;;2.10;59.00;;;;;;5116193;27;19937;-69
2021/11/12 09:17:09;;;;;;;;;;;2.30;57.80;;;;;;5114664;27;19920;-69
2021/11/12 09:19:45;;;;;;;;;;;2.20;58.40;;;;;;5121998;27;19920;-69
2021/11/12 09:22:13;;;;;;;;;;;2.40;57.60;;;;;;5122911;27;19927;-69
2021/11/12 09:24:42;;;;;;;;;;;2.30;58.20;;;;;;5112317;28;19927;-69
2021/11/12 09:27:12;;;;;;;;;;;2.20;57.70;;;;;;5100224;28;19920;-68
2021/11/12 09:29:40;;;;;;;;;;;2.20;55.60;;;;;;5121219;27;19958;-69
2021/11/12 09:32:09;;;;;;;;;;;2.30;56.90;;;;;;5116113;27;20385;-69
2021/11/12 09:34:41;;;;;;;;;;;2.30;56.00;;;;;;5114337;27;19927;-67
2021/11/12 09:37:11;;;;;;;;;;;2.40;56.70;;;;;;5094391;28;21206;-68
2021/11/12 09:39:44;;;;;;;;;;;2.50;57.10;;;;;;5113930;28;20311;-68
2021/11/12 09:42:14;;;;;;;;;;;2.40;56.80;;;;;;5121465;27;20616;-68
2021/11/12 09:44:44;;;;;;;;;;;2.50;56.70;;;;;;5114792;27;19930;-69
2021/11/12 09:47:12;;;;;;;;;;;2.50;57.40;;;;;;5116995;27;20259;-69
2021/11/12 09:49:40;;;;;;;;;;;2.40;56.20;;;;;;5122023;27;19919;-69
2021/11/12 09:52:10;;;;;;;;;;;2.50;55.10;;;;;;5121757;28;20538;-68
2021/11/12 09:54:38;;;;;;;;;;;2.40;53.70;;;;;;5119761;27;19962;-69
2021/11/12 09:57:07;;;;;;;;;;;2.50;55.30;;;;;;5126509;27;20282;-69
2021/11/12 09:59:37;;;;;;;;;;;2.50;52.90;;;;;;5119010;28;20556;-69
2021/11/12 10:02:11;;;;;;;;;;;2.30;53.40;;;;;;5120602;27;20384;-69
2021/11/12 10:04:39;;;;;;;;;;;2.40;55.00;;;;;;5119567;27;21817;-69
2021/11/12 10:07:11;;;;;;;;;;;2.40;53.50;;;;;;5127150;27;19938;-69
2021/11/12 10:09:39;;;;;;;;;;;2.40;55.10;;;;;;5129193;27;19920;-70
2021/11/12 10:12:13;;;;;;;;;;;2.50;53.40;;;;;;5130608;27;19924;-69
2021/11/12 10:14:49;;;;;;;;;;;2.40;53.40;;;;;;5127449;27;20006;-69
2021/11/12 10:17:21;;;;;;;;;;;2.40;52.90;;;;;;5123252;27;20392;-69
2021/11/12 10:19:53;;;;;;;;;;;2.30;54.60;;;;;;5129148;27;19926;-69
2021/11/12 10:22:22;;;;;;;;;;;2.20;54.10;;;;;;5126150;27;20013;-69
2021/11/12 10:24:54;;;;;;;;;;;2.30;56.00;;;;;;5125514;27;19923;-69
2021/11/12 10:27:23;;;;;;;;;;;2.30;57.00;;;;;;5126105;27;19927;-69
2021/11/12 10:29:53;;;;;;;;;;;2.50;57.30;;;;;;5123436;27;20409;-69
2021/11/12 10:32:23;;;;;;;;;;;2.40;57.50;;;;;;5120703;27;19919;-74
2021/11/12 10:34:52;;;;;;;;;;;2.70;57.30;;;;;;5112005;27;19931;-72
2021/11/12 10:37:28;;;;;;;;;;;2.70;56.50;;;;;;5123664;27;20014;-70
2021/11/12 10:40:03;;;;;;;;;;;2.70;56.80;;;;;;5122330;27;19927;-71
2021/11/12 10:42:33;;;;;;;;;;;2.70;53.40;;;;;;5124581;27;19919;-70
2021/11/12 10:45:05;;;;;;;;;;;2.60;50.70;;;;;;5113144;27;19989;-68
2021/11/12 10:47:33;;;;;;;;;;;2.70;51.80;;;;;;5123701;27;19926;-68
2021/11/12 10:50:03;;;;;;;;;;;2.40;52.10;;;;;;5125534;27;20397;-72
2021/11/12 10:52:36;;;;;;;;;;;2.20;52.00;;;;;;5121899;27;19923;-70
2021/11/12 10:55:07;;;;;;;;;;;2.40;53.90;;;;;;5121465;27;19930;-68
2021/11/12 10:57:40;;;;;;;;;;;2.50;54.50;;;;;;5125767;27;19936;-70
2021/11/12 11:00:15;;;;;;;;;;;2.60;55.70;;;;;;5117783;27;19954;-68
2021/11/12 11:02:46;;;;;;;;;;;2.70;55.10;;;;;;5123304;27;20137;-69
2021/11/12 11:05:19;;;;;;;;;;;2.80;54.40;;;;;;5120924;27;19979;-69
2021/11/12 11:07:51;;;;;;;;;;;2.90;54.80;;;;;;5079372;27;19928;-68
2021/11/12 11:10:28;;;;;;;;;;;3.10;52.70;;;;;;5121107;27;19931;-69
2021/11/12 11:13:00;;;;;;;;;;;3.00;52.70;;;;;;5120528;27;20390;-68
2021/11/12 11:15:35;;;;;;;;;;;3.10;51.30;;;;;;5095360;27;19930;-69
2021/11/12 11:18:25;;;;;;;;;;;3.00;51.10;;;;;;5121296;27;20026;-68
2021/11/12 11:20:59;;;;;;;;;;;3.30;52.00;;;;;;5125845;27;19923;-69
2021/11/12 11:23:28;;;;;;;;;;;3.60;52.20;;;;;;5114364;27;20267;-68
2021/11/12 11:26:00;;;;;;;;;;;3.50;47.50;;;;;;5117185;27;20298;-69
2021/11/12 11:28:29;;;;;;;;;;;3.00;48.40;;;;;;5122484;27;19919;-68
2021/11/12 11:31:00;;;;;;;;;;;3.10;50.10;;;;;;5116901;27;19945;-69
2021/11/12 11:33:29;;;;;;;;;;;3.00;50.80;;;;;;5086286;27;19919;-69
2021/11/12 11:35:57;;;;;;;;;;;3.10;52.70;;;;;;5116383;27;20422;-69
2021/11/12 11:38:29;;;;;;;;;;;3.60;53.10;;;;;;5112950;27;20363;-69
2021/11/12 11:40:58;;;;;;;;;;;3.40;49.60;;;;;;5114900;27;20018;-68
2021/11/12 11:43:26;;;;;;;;;;;3.60;49.10;;;;;;5114062;27;19981;-68
2021/11/12 11:45:55;;;;;;;;;;;3.60;47.80;;;;;;5113783;27;20367;-69
2021/11/12 11:48:27;;;;;;;;;;;3.80;46.60;;;;;;5115742;27;19919;-70
2021/11/12 11:51:24;;;;;;;;;;;3.90;46.30;;;;;;5118015;27;19919;-69
2021/11/12 11:53:54;;;;;;;;;;;3.80;45.40;;;;;;5094027;27;19962;-68
2021/11/12 11:56:27;;;;;;;;;;;3.60;45.00;;;;;;5112862;27;19920;-68
2021/11/12 11:58:56;;;;;;;;;;;3.70;46.30;;;;;;5116534;27;19977;-68
2021/11/12 12:01:28;;;;;;;;;;;3.30;43.70;;;;;;5116458;27;20002;-68
2021/11/12 12:04:30;;;;;;;;;;;3.50;47.20;;;;;;5114378;27;19962;-68
2021/11/12 12:07:18;;;;;;;;;;;3.40;47.50;;;;;;5114718;27;19930;-68
2021/11/12 12:09:50;;;;;;;;;;;3.70;48.70;;;;;;5113865;27;19959;-69
2021/11/12 12:12:39;;;;;;;;;;;3.50;47.90;;;;;;5119662;27;19919;-68
2021/11/12 12:15:26;;;;;;;;;;;3.60;49.00;;;;;;5114244;27;20350;-68
2021/11/12 12:18:08;;;;;;;;;;;3.60;46.60;;;;;;5106500;27;19926;-69
2021/11/12 12:20:48;;;;;;;;;;;3.70;47.10;;;;;;5085572;27;19973;-68
2021/11/12 13:20:41;;;;;;;;;;;3.20;48.30;;;;;;5115427;28;19977;-69
2021/11/12 13:23:13;;;;;;;;;;;3.00;49.00;;;;;;5118333;27;20014;-68
2021/11/12 13:25:44;;;;;;;;;;;3.20;52.80;;;;;;5115849;27;19950;-69
2021/11/12 13:28:15;;;;;;;;;;;3.20;54.30;;;;;;5116486;27;19923;-68
2021/11/12 13:30:45;;;;;;;;;;;3.30;54.40;;;;;;5119847;27;19930;-68
2021/11/12 13:33:24;;;;;;;;;;;3.30;55.20;;;;;;5116826;27;19926;-69
2021/11/12 13:35:52;;;;;;;;;;;3.40;56.30;;;;;;5115063;27;20121;-69
2021/11/12 13:38:20;;;;;;;;;;;3.50;56.20;;;;;;5117537;27;20011;-69
2021/11/12 13:40:48;;;;;;;;;;;3.40;55.70;;;;;;5125651;27;19967;-69
2021/11/12 13:43:22;;;;;;;;;;;3.50;53.10;;;;;;5118666;27;19919;-69
2021/11/12 13:45:59;;;;;;;;;;;3.30;52.50;;;;;;5103277;27;19983;-69
2021/11/12 13:48:29;;;;;;;;;;;3.10;52.70;;;;;;5119337;27;19919;-69
2021/11/12 13:51:00;;;;;;;;;;;3.30;55.80;;;;;;5120398;27;19919;-68
2021/11/12 13:53:30;;;;;;;;;;;3.30;54.70;;;;;;5123049;27;19980;-70
2021/11/12 13:56:07;;;;;;;;;;;3.30;55.80;;;;;;5119931;27;19946;-70
2021/11/12 13:58:36;;;;;;;;;;;3.30;54.10;;;;;;5119187;27;19919;-70
2021/11/12 14:01:13;;;;;;;;;;;3.10;54.40;;;;;;5129874;27;19959;-69
2021/11/12 14:03:46;;;;;;;;;;;3.10;57.20;;;;;;5102928;27;19919;-69
2021/11/12 14:06:18;;;;;;;;;;;3.30;56.80;;;;;;5120916;27;20067;-68
2021/11/12 14:08:47;;;;;;;;;;;3.20;56.70;;;;;;5121845;27;20042;-68
2021/11/12 14:11:16;;;;;;;;;;;2.90;57.60;;;;;;5121849;27;19924;-69
2021/11/12 14:13:47;;;;;;;;;;;2.90;58.70;;;;;;5121889;27;20016;-68
2021/11/12 14:16:27;;;;;;;;;;;3.00;59.00;;;;;;5123567;27;19924;-69
2021/11/12 14:19:16;;;;;;;;;;;3.00;58.80;;;;;;5123546;27;19935;-68
2021/11/12 14:21:51;;;;;;;;;;;3.00;59.20;;;;;;5121464;27;19923;-69
2021/11/12 14:24:33;;;;;;;;;;;3.10;59.40;;;;;;5119489;27;19927;-69
2021/11/12 14:27:10;;;;;;;;;;;3.00;59.90;;;;;;5114804;27;19958;-69
2021/11/12 14:30:03;;;;;;;;;;;3.00;60.10;;;;;;5100882;27;19924;-68
2021/11/12 14:32:48;;;;;;;;;;;3.00;59.10;;;;;;5126288;27;19935;-69
2021/11/12 14:35:30;;;;;;;;;;;2.90;60.30;;;;;;5119314;27;19919;-71
2021/11/12 14:38:09;;;;;;;;;;;3.00;60.40;;;;;;5118016;27;19926;-69
2021/11/12 14:40:53;;;;;;;;;;;2.90;60.30;;;;;;5124533;27;19959;-70
2021/11/12 14:43:32;;;;;;;;;;;2.90;60.30;;;;;;5120533;27;20508;-69
2021/11/12 14:46:18;;;;;;;;;;;2.80;60.30;;;;;;5115901;27;19920;-69
2021/11/12 14:49:11;;;;;;;;;;;2.90;60.40;;;;;;5101664;27;19931;-69
2021/11/12 14:51:46;;;;;;;;;;;2.80;60.60;;;;;;5126561;27;19924;-69
2021/11/12 14:54:14;;;;;;;;;;;2.70;61.20;;;;;;5115423;27;19920;-69
2021/11/12 14:56:50;;;;;;;;;;;2.90;61.70;;;;;;5124783;27;19976;-69
2021/11/12 14:59:23;;;;;;;;;;;2.90;61.70;;;;;;5127232;27;19954;-69
2021/11/12 15:01:52;;;;;;;;;;;2.80;61.60;;;;;;5118899;27;19926;-69
2021/11/12 15:04:23;;;;;;;;;;;2.90;61.80;;;;;;5116284;27;19927;-68
2021/11/12 15:06:52;;;;;;;;;;;2.90;61.90;;;;;;5116414;27;19923;-69
2021/11/12 15:09:25;;;;;;;;;;;2.90;61.90;;;;;;5114384;27;19934;-68
2021/11/12 15:11:59;;;;;;;;;;;3.00;62.10;;;;;;5121098;27;19924;-70
2021/11/12 15:14:28;;;;;;;;;;;2.80;61.40;;;;;;5113420;27;19927;-69
2021/11/12 15:17:07;;;;;;;;;;;2.70;61.50;;;;;;5113105;27;19972;-69
2021/11/12 15:19:43;;;;;;;;;;;2.80;61.70;;;;;;5119234;27;20495;-68
2021/11/12 15:22:22;;;;;;;;;;;2.80;61.80;;;;;;5117518;27;19927;-69
2021/11/12 15:25:01;;;;;;;;;;;2.70;61.70;;;;;;5110509;27;20015;-67
2021/11/12 15:27:43;;;;;;;;;;;2.70;61.80;;;;;;5115559;27;19923;-68
2021/11/12 15:30:19;;;;;;;;;;;2.80;61.80;;;;;;5116451;27;19920;-69
2021/11/12 15:32:50;;;;;;;;;;;2.70;61.90;;;;;;5110061;27;20717;-68
2021/11/12 15:35:21;;;;;;;;;;;2.70;61.90;;;;;;5112322;27;20133;-69
2021/11/12 15:37:54;;;;;;;;;;;2.70;61.90;;;;;;5115164;27;19927;-68
2021/11/12 15:40:28;;;;;;;;;;;2.60;61.90;;;;;;5112848;27;19927;-70
2021/11/12 15:43:05;;;;;;;;;;;2.50;61.70;;;;;;5114232;27;19928;-69
2021/11/12 15:45:52;;;;;;;;;;;2.60;61.90;;;;;;5115865;27;19927;-69
2021/11/12 15:48:21;;;;;;;;;;;2.50;61.90;;;;;;5110307;27;20014;-69
2021/11/12 15:50:59;;;;;;;;;;;2.50;62.10;;;;;;5118555;27;19936;-68
2021/11/12 15:53:31;;;;;;;;;;;2.40;62.10;;;;;;5115919;27;20340;-69
2021/11/12 15:59:02;;;;;;;;;;;2.40;62.20;;;;;;5099813;27;19919;-69
2021/11/12 16:04:44;;;;;;;;;;;2.50;62.80;;;;;;5108921;27;20266;-69
2021/11/12 16:07:29;;;;;;;;;;;2.50;62.90;;;;;;5108712;27;19923;-70
2021/11/12 16:10:24;;;;;;;;;;;2.60;62.90;;;;;;5115814;27;19923;-70
2021/11/12 16:12:55;;;;;;;;;;;2.50;62.80;;;;;;5111929;27;19928;-72
2021/11/12 16:18:24;;;;;;;;;;;2.60;63.40;;;;;;5116829;27;20389;-70
2021/11/12 16:21:06;;;;;;;;;;;2.50;63.40;;;;;;5115485;27;19945;-69
2021/11/12 16:26:27;;;;;;;;;;;2.60;63.50;;;;;;5107114;27;20017;-71
2021/11/12 16:29:09;;;;;;;;;;;2.60;63.60;;;;;;5120800;27;19991;-71
2021/11/12 16:31:41;;;;;;;;;;;2.60;63.70;;;;;;5116241;27;20688;-70
2021/11/12 16:34:14;;;;;;;;;;;2.60;63.80;;;;;;5118935;27;20599;-70
2021/11/12 16:36:57;;;;;;;;;;;2.50;63.80;;;;;;5081641;27;20503;-70
2021/11/12 16:39:32;;;;;;;;;;;2.40;63.90;;;;;;5122818;27;20033;-70
2021/11/12 16:42:20;;;;;;;;;;;2.30;63.80;;;;;;5104033;27;19930;-69
2021/11/12 16:44:55;;;;;;;;;;;2.50;63.90;;;;;;5117268;27;20213;-69
2021/11/12 16:50:34;;;;;;;;;;;2.40;64.70;;;;;;5114112;27;19927;-70
2021/11/12 16:53:20;;;;;;;;;;;2.50;64.10;;;;;;5122827;27;19930;-70
2021/11/12 16:58:47;;;;;;;;;;;2.60;64.10;;;;;;5114592;27;20014;-71
2021/11/12 17:04:12;;;;;;;;;;;2.60;64.10;;;;;;5114732;27;19962;-70
2021/11/12 17:06:48;;;;;;;;;;;2.60;64.10;;;;;;5113526;27;20020;-70
2021/11/12 17:09:44;;;;;;;;;;;2.70;64.30;;;;;;5119980;27;19946;-71
2021/11/12 17:12:32;;;;;;;;;;;2.80;64.40;;;;;;5119636;27;20045;-72
2021/11/12 17:18:07;;;;;;;;;;;2.70;64.30;;;;;;5069639;27;19938;-69
2021/11/12 17:46:00;;;;;;;;;;;2.50;64.40;;;;;;5098188;27;19949;-70
2021/11/12 17:48:35;;;;;;;;;;;2.30;64.10;;;;;;5120276;27;19976;-71
2021/11/12 18:02:35;;;;;;;;;;;2.50;64.50;;;;;;5058457;28;20066;-70
2021/11/12 18:05:16;;;;;;;;;;;2.30;64.00;;;;;;5024144;28;19929;-70
2021/11/12 18:08:02;;;;;;;;;;;2.50;64.20;;;;;;5081161;27;19923;-70
2021/11/12 18:22:11;;;;;;;;;;;2.30;64.10;;;;;;5076432;28;19924;-68
2021/11/12 21:44:38;;;;;;;;;;;2.10;62.50;;;;;;5083971;28;20345;-66
2021/11/12 21:47:06;;;;;;;;;;;2.30;62.80;;;;;;5079679;28;20059;-67
2021/11/12 21:49:34;;;;;;;;;;;2.30;62.90;;;;;;5086394;28;20010;-68
2021/11/12 21:52:04;;;;;;;;;;;2.40;63.00;;;;;;5088947;28;20011;-69
2021/11/12 21:54:33;;;;;;;;;;;2.40;63.10;;;;;;5074180;28;20007;-68
2021/11/12 21:57:01;;;;;;;;;;;2.40;63.20;;;;;;5084857;28;19932;-69
2021/11/12 21:59:30;;;;;;;;;;;2.50;63.50;;;;;;5083511;28;19924;-68
2021/11/12 22:01:58;;;;;;;;;;;2.50;63.50;;;;;;5079749;28;20015;-68
2021/11/12 22:04:27;;;;;;;;;;;2.50;63.60;;;;;;5097986;28;20018;-68
2021/11/12 22:06:57;;;;;;;;;;;2.60;63.90;;;;;;5098153;28;19931;-68
2021/11/12 22:09:33;;;;;;;;;;;2.70;64.00;;;;;;5085350;28;19935;-68
2021/11/12 22:12:01;;;;;;;;;;;2.70;64.10;;;;;;5077074;28;19989;-67
2021/11/12 22:14:29;;;;;;;;;;;2.70;64.10;;;;;;5076169;28;19952;-68
2021/11/12 22:16:57;;;;;;;;;;;2.70;64.10;;;;;;5081378;28;19924;-71
2021/11/12 22:19:26;;;;;;;;;;;2.70;64.10;;;;;;5103643;28;20458;-69
2021/11/12 22:21:54;;;;;;;;;;;2.60;64.00;;;;;;5065241;28;20396;-68